This is the latest recevied weather packets stored in our database for station/object N9ALD. If no packets are shown the sender has not sent any weather packets the latest 10 day(s).
| Time | Temp. | Humidity | Pressure | Rain* | Wind** | Luminosity | Snow |
|---|---|---|---|---|---|---|---|
| 1776973530 | 27.78° C | 34% | 1009.1 hPa | 0 mm | - | 597 W/m² | - |
| 1776973227 | 28.33° C | 33% | 1009.2 hPa | 0 mm | - | 565 W/m² | - |
| 1776972924 | 27.78° C | 34% | 1009.4 hPa | 0 mm | - | 650 W/m² | - |
| 1776972621 | 27.78° C | 37% | 1009.3 hPa | 0 mm | - | 291 W/m² | - |
| 1776972318 | 27.22° C | 37% | 1009.4 hPa | 0 mm | - | 361 W/m² | - |
| 1776972014 | 27.22° C | 38% | 1009.6 hPa | 0 mm | - | 696 W/m² | - |
| 1776971710 | 27.22° C | 37% | 1009.5 hPa | 0 mm | - | 248 W/m² | - |
| 1776971407 | 27.22° C | 39% | 1009.6 hPa | 0 mm | - | 690 W/m² | - |
| 1776971104 | 27.78° C | 37% | 1009.5 hPa | 0 mm | - | 161 W/m² | - |
| 1776970801 | 27.78° C | 35% | 1009.6 hPa | 0 mm | - | 663 W/m² | - |
| 1776970499 | 27.78° C | 34% | 1009.6 hPa | 0 mm | - | 353 W/m² | - |
| 1776970195 | 27.78° C | 35% | 1009.8 hPa | 0 mm | - | 679 W/m² | - |
| 1776969891 | 27.78° C | 37% | 1009.7 hPa | 0 mm | - | 678 W/m² | - |
| 1776969589 | 27.22° C | 37% | 1009.7 hPa | 0 mm | - | 698 W/m² | - |
| 1776969285 | 27.22° C | 36% | 1009.9 hPa | 0 mm | - | 701 W/m² | - |
| 1776968981 | 27.22° C | 37% | 1010 hPa | 0 mm | - | 715 W/m² | - |
| 1776968681 | 27.22° C | 39% | 1010.1 hPa | 0 mm | - | 698 W/m² | - |
| 1776968377 | 27.22° C | 39% | 1010.1 hPa | 0 mm | - | 696 W/m² | - |
| 1776968073 | 27.22° C | 38% | 1010.3 hPa | 0 mm | - | 722 W/m² | - |
| 1776967770 | 27.22° C | 36% | 1010.2 hPa | 0 mm | - | 715 W/m² | - |
| 1776967467 | 26.67° C | 38% | 1010.3 hPa | 0 mm | - | 716 W/m² | - |
| 1776967165 | 26.67° C | 38% | 1010.3 hPa | 0 mm | - | 712 W/m² | - |
| 1776966861 | 26.67° C | 38% | 1010.5 hPa | 0 mm | - | 706 W/m² | - |
| 1776966557 | 26.67° C | 37% | 1010.4 hPa | 0 mm | - | 708 W/m² | - |
| 1776966253 | 26.67° C | 36% | 1010.7 hPa | 0 mm | - | 697 W/m² | - |
* Rain latest hour (hover to see other rain measurements)
** Current wind speed in m/s (hover to see current wind gust speed)